sensor_id;sensor_type;location;lat;lon;timestamp;P1;durP1;ratioP1;P2;durP2;ratioP2
10275;SDS011;5183;51.190;6.820;2024-01-30T00:08:23;13.75;;;11.25;;
10275;SDS011;5183;51.190;6.820;2024-01-30T00:10:50;14.40;;;11.20;;
10275;SDS011;5183;51.190;6.820;2024-01-30T00:15:45;13.03;;;11.10;;
10275;SDS011;5183;51.190;6.820;2024-01-30T00:18:11;12.60;;;11.30;;
10275;SDS011;5183;51.190;6.820;2024-01-30T00:20:38;13.20;;;11.43;;
10275;SDS011;5183;51.190;6.820;2024-01-30T00:23:07;14.10;;;11.67;;
10275;SDS011;5183;51.190;6.820;2024-01-30T00:25:33;13.50;;;11.53;;
10275;SDS011;5183;51.190;6.820;2024-01-30T00:28:00;15.67;;;11.73;;
10275;SDS011;5183;51.190;6.820;2024-01-30T00:30:27;14.40;;;11.50;;
10275;SDS011;5183;51.190;6.820;2024-01-30T00:35:21;15.10;;;12.10;;
10275;SDS011;5183;51.190;6.820;2024-01-30T00:42:43;13.07;;;11.60;;
10275;SDS011;5183;51.190;6.820;2024-01-30T00:45:11;13.45;;;12.00;;
10275;SDS011;5183;51.190;6.820;2024-01-30T00:47:39;18.30;;;11.90;;
10275;SDS011;5183;51.190;6.820;2024-01-30T00:50:06;15.00;;;12.10;;
10275;SDS011;5183;51.190;6.820;2024-01-30T00:52:33;15.50;;;11.85;;
10275;SDS011;5183;51.190;6.820;2024-01-30T00:55:00;18.10;;;13.20;;
10275;SDS011;5183;51.190;6.820;2024-01-30T00:57:29;14.40;;;12.33;;
10275;SDS011;5183;51.190;6.820;2024-01-30T00:59:55;13.23;;;11.63;;
10275;SDS011;5183;51.190;6.820;2024-01-30T01:02:23;16.50;;;12.30;;
10275;SDS011;5183;51.190;6.820;2024-01-30T01:04:50;14.10;;;11.67;;
10275;SDS011;5183;51.190;6.820;2024-01-30T01:07:15;14.90;;;12.33;;
10275;SDS011;5183;51.190;6.820;2024-01-30T01:09:42;16.97;;;12.03;;
10275;SDS011;5183;51.190;6.820;2024-01-30T01:12:09;14.30;;;12.30;;
10275;SDS011;5183;51.190;6.820;2024-01-30T01:14:37;15.87;;;13.40;;
10275;SDS011;5183;51.190;6.820;2024-01-30T01:17:04;13.10;;;11.70;;
10275;SDS011;5183;51.190;6.820;2024-01-30T01:19:31;14.20;;;12.50;;
10275;SDS011;5183;51.190;6.820;2024-01-30T01:21:58;15.25;;;11.90;;
10275;SDS011;5183;51.190;6.820;2024-01-30T01:24:25;16.60;;;12.70;;
10275;SDS011;5183;51.190;6.820;2024-01-30T01:26:52;17.50;;;12.40;;
10275;SDS011;5183;51.190;6.820;2024-01-30T01:29:18;13.50;;;11.75;;
10275;SDS011;5183;51.190;6.820;2024-01-30T01:31:47;14.90;;;12.60;;
10275;SDS011;5183;51.190;6.820;2024-01-30T01:34:14;18.50;;;12.80;;
10275;SDS011;5183;51.190;6.820;2024-01-30T01:39:07;14.70;;;12.15;;
10275;SDS011;5183;51.190;6.820;2024-01-30T01:41:34;16.50;;;12.40;;
10275;SDS011;5183;51.190;6.820;2024-01-30T01:46:30;16.10;;;11.30;;
10275;SDS011;5183;51.190;6.820;2024-01-30T01:49:00;14.60;;;11.30;;
10275;SDS011;5183;51.190;6.820;2024-01-30T01:51:31;15.47;;;12.03;;
10275;SDS011;5183;51.190;6.820;2024-01-30T01:54:00;15.20;;;12.60;;
10275;SDS011;5183;51.190;6.820;2024-01-30T01:56:29;15.20;;;11.87;;
10275;SDS011;5183;51.190;6.820;2024-01-30T01:58:59;20.23;;;13.07;;
10275;SDS011;5183;51.190;6.820;2024-01-30T02:01:30;13.33;;;11.37;;
10275;SDS011;5183;51.190;6.820;2024-01-30T02:03:58;13.73;;;12.30;;
10275;SDS011;5183;51.190;6.820;2024-01-30T02:06:27;17.97;;;12.23;;
10275;SDS011;5183;51.190;6.820;2024-01-30T02:08:54;14.23;;;12.00;;
10275;SDS011;5183;51.190;6.820;2024-01-30T02:11:21;15.10;;;12.33;;
10275;SDS011;5183;51.190;6.820;2024-01-30T02:13:49;16.63;;;12.17;;
10275;SDS011;5183;51.190;6.820;2024-01-30T02:16:16;15.03;;;11.57;;
10275;SDS011;5183;51.190;6.820;2024-01-30T02:18:43;14.93;;;11.80;;
10275;SDS011;5183;51.190;6.820;2024-01-30T02:21:13;14.20;;;11.60;;
10275;SDS011;5183;51.190;6.820;2024-01-30T02:23:41;15.37;;;12.27;;
10275;SDS011;5183;51.190;6.820;2024-01-30T02:26:10;14.20;;;12.05;;
10275;SDS011;5183;51.190;6.820;2024-01-30T02:28:37;16.27;;;11.63;;
10275;SDS011;5183;51.190;6.820;2024-01-30T02:31:04;14.37;;;11.63;;
10275;SDS011;5183;51.190;6.820;2024-01-30T02:33:31;13.33;;;11.80;;
10275;SDS011;5183;51.190;6.820;2024-01-30T02:35:58;14.63;;;11.67;;
10275;SDS011;5183;51.190;6.820;2024-01-30T02:38:26;15.00;;;12.00;;
10275;SDS011;5183;51.190;6.820;2024-01-30T02:40:53;13.73;;;11.77;;
10275;SDS011;5183;51.190;6.820;2024-01-30T02:43:21;14.33;;;11.47;;
10275;SDS011;5183;51.190;6.820;2024-01-30T02:45:48;16.93;;;12.13;;
10275;SDS011;5183;51.190;6.820;2024-01-30T02:48:15;15.03;;;11.87;;
10275;SDS011;5183;51.190;6.820;2024-01-30T02:50:41;15.57;;;11.90;;
10275;SDS011;5183;51.190;6.820;2024-01-30T02:53:08;12.77;;;11.50;;
10275;SDS011;5183;51.190;6.820;2024-01-30T02:55:37;14.07;;;11.27;;
10275;SDS011;5183;51.190;6.820;2024-01-30T02:58:03;14.57;;;11.50;;
10275;SDS011;5183;51.190;6.820;2024-01-30T03:00:30;13.70;;;11.33;;
10275;SDS011;5183;51.190;6.820;2024-01-30T03:02:57;15.77;;;11.93;;
10275;SDS011;5183;51.190;6.820;2024-01-30T03:05:24;12.50;;;11.07;;
10275;SDS011;5183;51.190;6.820;2024-01-30T03:07:51;14.97;;;11.50;;
10275;SDS011;5183;51.190;6.820;2024-01-30T03:10:18;14.03;;;11.50;;
10275;SDS011;5183;51.190;6.820;2024-01-30T03:12:46;13.90;;;12.00;;
10275;SDS011;5183;51.190;6.820;2024-01-30T03:15:13;14.30;;;11.40;;
10275;SDS011;5183;51.190;6.820;2024-01-30T03:17:40;15.43;;;11.97;;
10275;SDS011;5183;51.190;6.820;2024-01-30T03:20:07;12.10;;;10.77;;
10275;SDS011;5183;51.190;6.820;2024-01-30T03:22:35;14.03;;;12.20;;
10275;SDS011;5183;51.190;6.820;2024-01-30T03:25:02;13.20;;;11.07;;
10275;SDS011;5183;51.190;6.820;2024-01-30T03:27:29;13.20;;;11.13;;
10275;SDS011;5183;51.190;6.820;2024-01-30T03:29:57;13.33;;;11.50;;
10275;SDS011;5183;51.190;6.820;2024-01-30T03:32:24;14.67;;;10.97;;
10275;SDS011;5183;51.190;6.820;2024-01-30T03:34:51;12.57;;;10.60;;
10275;SDS011;5183;51.190;6.820;2024-01-30T03:37:17;14.43;;;11.13;;
10275;SDS011;5183;51.190;6.820;2024-01-30T03:39:44;14.00;;;11.60;;
10275;SDS011;5183;51.190;6.820;2024-01-30T03:42:11;12.70;;;11.03;;
10275;SDS011;5183;51.190;6.820;2024-01-30T03:44:38;14.73;;;11.70;;
10275;SDS011;5183;51.190;6.820;2024-01-30T03:47:06;12.70;;;11.40;;
10275;SDS011;5183;51.190;6.820;2024-01-30T03:49:33;14.30;;;11.77;;
10275;SDS011;5183;51.190;6.820;2024-01-30T03:52:00;14.77;;;11.33;;
10275;SDS011;5183;51.190;6.820;2024-01-30T03:54:27;14.43;;;11.47;;
10275;SDS011;5183;51.190;6.820;2024-01-30T03:56:53;15.37;;;11.93;;
10275;SDS011;5183;51.190;6.820;2024-01-30T03:59:20;13.83;;;11.20;;
10275;SDS011;5183;51.190;6.820;2024-01-30T04:01:49;15.53;;;12.10;;
10275;SDS011;5183;51.190;6.820;2024-01-30T04:04:18;13.03;;;11.60;;
10275;SDS011;5183;51.190;6.820;2024-01-30T04:06:45;16.90;;;11.90;;
10275;SDS011;5183;51.190;6.820;2024-01-30T04:09:12;13.90;;;11.50;;
10275;SDS011;5183;51.190;6.820;2024-01-30T04:11:39;14.00;;;10.90;;
10275;SDS011;5183;51.190;6.820;2024-01-30T04:14:06;13.90;;;10.80;;
10275;SDS011;5183;51.190;6.820;2024-01-30T04:19:01;12.10;;;10.70;;
10275;SDS011;5183;51.190;6.820;2024-01-30T04:21:29;13.15;;;11.00;;
10275;SDS011;5183;51.190;6.820;2024-01-30T04:23:56;16.25;;;11.50;;
10275;SDS011;5183;51.190;6.820;2024-01-30T04:26:23;15.90;;;11.50;;
10275;SDS011;5183;51.190;6.820;2024-01-30T04:28:50;16.20;;;11.60;;
10275;SDS011;5183;51.190;6.820;2024-01-30T04:36:10;12.80;;;10.80;;
10275;SDS011;5183;51.190;6.820;2024-01-30T04:45:58;16.15;;;11.80;;
10275;SDS011;5183;51.190;6.820;2024-01-30T04:48:25;15.90;;;11.67;;
10275;SDS011;5183;51.190;6.820;2024-01-30T04:50:51;15.20;;;11.90;;
10275;SDS011;5183;51.190;6.820;2024-01-30T04:53:18;14.90;;;11.60;;
10275;SDS011;5183;51.190;6.820;2024-01-30T04:55:46;13.73;;;11.97;;
10275;SDS011;5183;51.190;6.820;2024-01-30T04:58:13;13.70;;;11.85;;
10275;SDS011;5183;51.190;6.820;2024-01-30T05:03:07;17.05;;;11.65;;
10275;SDS011;5183;51.190;6.820;2024-01-30T05:05:33;16.30;;;12.40;;
10275;SDS011;5183;51.190;6.820;2024-01-30T05:10:27;14.70;;;11.80;;
10275;SDS011;5183;51.190;6.820;2024-01-30T05:17:49;14.87;;;12.30;;
10275;SDS011;5183;51.190;6.820;2024-01-30T05:22:42;14.20;;;12.00;;
10275;SDS011;5183;51.190;6.820;2024-01-30T05:27:38;13.35;;;11.30;;
10275;SDS011;5183;51.190;6.820;2024-01-30T05:30:06;12.77;;;10.93;;
10275;SDS011;5183;51.190;6.820;2024-01-30T05:32:34;15.10;;;11.47;;
10275;SDS011;5183;51.190;6.820;2024-01-30T05:35:01;17.90;;;11.80;;
10275;SDS011;5183;51.190;6.820;2024-01-30T05:37:28;15.37;;;11.93;;
10275;SDS011;5183;51.190;6.820;2024-01-30T05:39:54;15.50;;;12.80;;
10275;SDS011;5183;51.190;6.820;2024-01-30T05:42:22;15.23;;;12.47;;
10275;SDS011;5183;51.190;6.820;2024-01-30T05:44:49;13.30;;;11.90;;
10275;SDS011;5183;51.190;6.820;2024-01-30T05:47:17;14.90;;;12.80;;
10275;SDS011;5183;51.190;6.820;2024-01-30T05:49:44;16.10;;;12.60;;
10275;SDS011;5183;51.190;6.820;2024-01-30T05:52:11;16.85;;;12.85;;
10275;SDS011;5183;51.190;6.820;2024-01-30T05:54:38;16.00;;;12.53;;
10275;SDS011;5183;51.190;6.820;2024-01-30T05:57:05;17.65;;;13.45;;
10275;SDS011;5183;51.190;6.820;2024-01-30T05:59:31;17.50;;;12.80;;
10275;SDS011;5183;51.190;6.820;2024-01-30T06:01:58;16.80;;;12.87;;
10275;SDS011;5183;51.190;6.820;2024-01-30T06:04:26;15.13;;;12.83;;
10275;SDS011;5183;51.190;6.820;2024-01-30T06:06:53;19.87;;;12.43;;
10275;SDS011;5183;51.190;6.820;2024-01-30T06:09:20;16.03;;;12.63;;
10275;SDS011;5183;51.190;6.820;2024-01-30T06:11:47;21.13;;;17.17;;
10275;SDS011;5183;51.190;6.820;2024-01-30T06:14:14;18.27;;;13.77;;
10275;SDS011;5183;51.190;6.820;2024-01-30T06:16:41;14.93;;;12.70;;
10275;SDS011;5183;51.190;6.820;2024-01-30T06:19:08;16.90;;;13.77;;
10275;SDS011;5183;51.190;6.820;2024-01-30T06:21:36;20.00;;;14.95;;
10275;SDS011;5183;51.190;6.820;2024-01-30T06:24:03;17.23;;;13.83;;
10275;SDS011;5183;51.190;6.820;2024-01-30T06:26:30;15.67;;;12.47;;
10275;SDS011;5183;51.190;6.820;2024-01-30T06:28:57;16.73;;;12.73;;
10275;SDS011;5183;51.190;6.820;2024-01-30T06:31:24;19.50;;;12.63;;
10275;SDS011;5183;51.190;6.820;2024-01-30T06:33:51;17.63;;;13.30;;
10275;SDS011;5183;51.190;6.820;2024-01-30T06:36:18;14.87;;;12.27;;
10275;SDS011;5183;51.190;6.820;2024-01-30T06:38:46;16.13;;;12.87;;
10275;SDS011;5183;51.190;6.820;2024-01-30T06:41:13;15.53;;;12.97;;
10275;SDS011;5183;51.190;6.820;2024-01-30T06:43:40;14.67;;;12.57;;
10275;SDS011;5183;51.190;6.820;2024-01-30T06:46:07;13.73;;;12.17;;
10275;SDS011;5183;51.190;6.820;2024-01-30T06:48:34;16.80;;;11.80;;
10275;SDS011;5183;51.190;6.820;2024-01-30T06:51:00;17.30;;;12.00;;
10275;SDS011;5183;51.190;6.820;2024-01-30T06:53:27;16.57;;;12.00;;
10275;SDS011;5183;51.190;6.820;2024-01-30T06:55:55;18.17;;;11.97;;
10275;SDS011;5183;51.190;6.820;2024-01-30T06:58:22;13.83;;;11.57;;
10275;SDS011;5183;51.190;6.820;2024-01-30T07:00:49;13.70;;;11.33;;
10275;SDS011;5183;51.190;6.820;2024-01-30T07:03:16;13.63;;;11.30;;
10275;SDS011;5183;51.190;6.820;2024-01-30T07:05:43;13.13;;;11.73;;
10275;SDS011;5183;51.190;6.820;2024-01-30T07:08:09;15.23;;;11.77;;
10275;SDS011;5183;51.190;6.820;2024-01-30T07:10:36;13.80;;;11.07;;
10275;SDS011;5183;51.190;6.820;2024-01-30T07:13:05;15.03;;;11.57;;
10275;SDS011;5183;51.190;6.820;2024-01-30T07:15:32;13.23;;;11.47;;
10275;SDS011;5183;51.190;6.820;2024-01-30T07:17:59;14.33;;;12.17;;
10275;SDS011;5183;51.190;6.820;2024-01-30T07:20:25;16.17;;;12.43;;
10275;SDS011;5183;51.190;6.820;2024-01-30T07:22:52;17.63;;;14.03;;
10275;SDS011;5183;51.190;6.820;2024-01-30T07:25:19;15.43;;;12.07;;
10275;SDS011;5183;51.190;6.820;2024-01-30T07:27:46;15.57;;;10.93;;
10275;SDS011;5183;51.190;6.820;2024-01-30T07:30:15;17.00;;;11.83;;
10275;SDS011;5183;51.190;6.820;2024-01-30T07:32:42;12.83;;;11.03;;
10275;SDS011;5183;51.190;6.820;2024-01-30T07:35:09;14.43;;;11.90;;
10275;SDS011;5183;51.190;6.820;2024-01-30T07:37:36;17.73;;;12.53;;
10275;SDS011;5183;51.190;6.820;2024-01-30T07:40:03;19.60;;;14.70;;
10275;SDS011;5183;51.190;6.820;2024-01-30T07:42:31;15.30;;;11.87;;
10275;SDS011;5183;51.190;6.820;2024-01-30T07:44:58;16.93;;;11.80;;
10275;SDS011;5183;51.190;6.820;2024-01-30T07:47:26;15.00;;;11.60;;
10275;SDS011;5183;51.190;6.820;2024-01-30T07:49:53;14.90;;;11.30;;
10275;SDS011;5183;51.190;6.820;2024-01-30T07:52:20;14.13;;;11.83;;
10275;SDS011;5183;51.190;6.820;2024-01-30T07:57:14;16.00;;;11.80;;
10275;SDS011;5183;51.190;6.820;2024-01-30T07:59:41;13.25;;;11.60;;
10275;SDS011;5183;51.190;6.820;2024-01-30T08:02:08;15.15;;;11.70;;
10275;SDS011;5183;51.190;6.820;2024-01-30T08:04:37;14.10;;;11.15;;
10275;SDS011;5183;51.190;6.820;2024-01-30T08:07:04;13.93;;;11.27;;
10275;SDS011;5183;51.190;6.820;2024-01-30T08:09:31;13.20;;;11.20;;
10275;SDS011;5183;51.190;6.820;2024-01-30T08:11:58;12.83;;;11.33;;
10275;SDS011;5183;51.190;6.820;2024-01-30T08:14:24;16.53;;;12.27;;
10275;SDS011;5183;51.190;6.820;2024-01-30T08:16:51;13.20;;;11.60;;
10275;SDS011;5183;51.190;6.820;2024-01-30T08:19:18;15.30;;;12.13;;
10275;SDS011;5183;51.190;6.820;2024-01-30T08:21:47;14.47;;;10.80;;
10275;SDS011;5183;51.190;6.820;2024-01-30T08:24:13;13.13;;;10.40;;
10275;SDS011;5183;51.190;6.820;2024-01-30T08:26:40;17.93;;;13.90;;
10275;SDS011;5183;51.190;6.820;2024-01-30T08:29:07;13.13;;;10.90;;
10275;SDS011;5183;51.190;6.820;2024-01-30T08:31:34;17.77;;;12.70;;
10275;SDS011;5183;51.190;6.820;2024-01-30T08:34:01;14.43;;;11.20;;
10275;SDS011;5183;51.190;6.820;2024-01-30T08:36:28;13.97;;;10.73;;
10275;SDS011;5183;51.190;6.820;2024-01-30T08:38:56;16.43;;;10.97;;
10275;SDS011;5183;51.190;6.820;2024-01-30T08:41:23;15.63;;;10.80;;
10275;SDS011;5183;51.190;6.820;2024-01-30T08:43:51;13.10;;;10.93;;
10275;SDS011;5183;51.190;6.820;2024-01-30T08:46:19;17.17;;;12.73;;
10275;SDS011;5183;51.190;6.820;2024-01-30T08:48:46;14.50;;;11.90;;
10275;SDS011;5183;51.190;6.820;2024-01-30T08:51:13;19.00;;;14.90;;
10275;SDS011;5183;51.190;6.820;2024-01-30T08:53:40;16.00;;;12.03;;
10275;SDS011;5183;51.190;6.820;2024-01-30T08:56:09;15.03;;;13.20;;
10275;SDS011;5183;51.190;6.820;2024-01-30T08:58:36;15.50;;;12.90;;
10275;SDS011;5183;51.190;6.820;2024-01-30T09:01:03;16.83;;;12.43;;
10275;SDS011;5183;51.190;6.820;2024-01-30T09:03:30;14.63;;;11.10;;
10275;SDS011;5183;51.190;6.820;2024-01-30T09:05:57;13.53;;;11.40;;
10275;SDS011;5183;51.190;6.820;2024-01-30T09:08:24;16.73;;;11.07;;
10275;SDS011;5183;51.190;6.820;2024-01-30T09:10:51;14.17;;;11.83;;
10275;SDS011;5183;51.190;6.820;2024-01-30T09:13:20;12.17;;;10.63;;
10275;SDS011;5183;51.190;6.820;2024-01-30T09:15:47;15.87;;;10.90;;
10275;SDS011;5183;51.190;6.820;2024-01-30T09:18:14;13.53;;;10.80;;
10275;SDS011;5183;51.190;6.820;2024-01-30T09:20:41;13.43;;;10.63;;
10275;SDS011;5183;51.190;6.820;2024-01-30T09:23:07;13.07;;;10.47;;
10275;SDS011;5183;51.190;6.820;2024-01-30T09:25:34;12.17;;;10.50;;
10275;SDS011;5183;51.190;6.820;2024-01-30T09:28:01;13.13;;;10.43;;
10275;SDS011;5183;51.190;6.820;2024-01-30T09:30:29;13.20;;;10.67;;
10275;SDS011;5183;51.190;6.820;2024-01-30T09:32:56;12.17;;;10.17;;
10275;SDS011;5183;51.190;6.820;2024-01-30T09:35:23;11.97;;;9.93;;
10275;SDS011;5183;51.190;6.820;2024-01-30T09:37:50;12.30;;;10.10;;
10275;SDS011;5183;51.190;6.820;2024-01-30T09:40:17;12.95;;;11.25;;
10275;SDS011;5183;51.190;6.820;2024-01-30T09:42:46;11.40;;;10.20;;
10275;SDS011;5183;51.190;6.820;2024-01-30T09:45:15;13.30;;;10.63;;
10275;SDS011;5183;51.190;6.820;2024-01-30T09:47:45;13.95;;;10.60;;
10275;SDS011;5183;51.190;6.820;2024-01-30T09:50:13;12.70;;;10.50;;
10275;SDS011;5183;51.190;6.820;2024-01-30T09:52:41;13.17;;;10.60;;
10275;SDS011;5183;51.190;6.820;2024-01-30T09:55:10;12.00;;;10.23;;
10275;SDS011;5183;51.190;6.820;2024-01-30T09:57:37;13.60;;;10.63;;
10275;SDS011;5183;51.190;6.820;2024-01-30T10:00:04;11.50;;;9.70;;
10275;SDS011;5183;51.190;6.820;2024-01-30T10:02:34;12.43;;;10.43;;
10275;SDS011;5183;51.190;6.820;2024-01-30T10:05:02;14.33;;;10.00;;
10275;SDS011;5183;51.190;6.820;2024-01-30T10:07:30;12.83;;;10.40;;
10275;SDS011;5183;51.190;6.820;2024-01-30T10:09:56;12.90;;;9.73;;
10275;SDS011;5183;51.190;6.820;2024-01-30T10:12:25;12.87;;;11.10;;
10275;SDS011;5183;51.190;6.820;2024-01-30T10:14:53;11.97;;;9.97;;
10275;SDS011;5183;51.190;6.820;2024-01-30T10:17:24;12.27;;;10.13;;
10275;SDS011;5183;51.190;6.820;2024-01-30T10:19:52;11.80;;;9.73;;
10275;SDS011;5183;51.190;6.820;2024-01-30T10:22:20;11.50;;;10.07;;
10275;SDS011;5183;51.190;6.820;2024-01-30T10:24:48;11.87;;;10.27;;
10275;SDS011;5183;51.190;6.820;2024-01-30T10:27:15;12.67;;;9.67;;
10275;SDS011;5183;51.190;6.820;2024-01-30T10:29:41;11.70;;;10.23;;
10275;SDS011;5183;51.190;6.820;2024-01-30T10:32:08;15.67;;;10.33;;
10275;SDS011;5183;51.190;6.820;2024-01-30T10:34:35;17.37;;;13.90;;
10275;SDS011;5183;51.190;6.820;2024-01-30T10:37:06;15.63;;;11.20;;
10275;SDS011;5183;51.190;6.820;2024-01-30T10:39:39;18.37;;;12.33;;
10275;SDS011;5183;51.190;6.820;2024-01-30T10:42:06;14.33;;;10.63;;
10275;SDS011;5183;51.190;6.820;2024-01-30T10:44:36;12.43;;;10.10;;
10275;SDS011;5183;51.190;6.820;2024-01-30T10:47:11;12.50;;;10.57;;
10275;SDS011;5183;51.190;6.820;2024-01-30T10:49:39;14.90;;;10.37;;
10275;SDS011;5183;51.190;6.820;2024-01-30T10:52:07;13.97;;;10.20;;
10275;SDS011;5183;51.190;6.820;2024-01-30T10:54:35;16.90;;;9.90;;
10275;SDS011;5183;51.190;6.820;2024-01-30T10:57:05;13.73;;;10.10;;
10275;SDS011;5183;51.190;6.820;2024-01-30T10:59:32;11.30;;;9.70;;
10275;SDS011;5183;51.190;6.820;2024-01-30T11:01:59;14.97;;;10.73;;
10275;SDS011;5183;51.190;6.820;2024-01-30T11:04:27;12.83;;;10.70;;
10275;SDS011;5183;51.190;6.820;2024-01-30T11:07:01;13.93;;;9.80;;
10275;SDS011;5183;51.190;6.820;2024-01-30T11:09:29;13.53;;;10.60;;
10275;SDS011;5183;51.190;6.820;2024-01-30T11:11:56;16.40;;;10.47;;
10275;SDS011;5183;51.190;6.820;2024-01-30T11:14:26;12.00;;;10.10;;
10275;SDS011;5183;51.190;6.820;2024-01-30T11:16:57;11.83;;;10.13;;
10275;SDS011;5183;51.190;6.820;2024-01-30T11:19:24;12.15;;;10.40;;
10275;SDS011;5183;51.190;6.820;2024-01-30T11:21:52;12.93;;;10.93;;
10275;SDS011;5183;51.190;6.820;2024-01-30T11:24:21;15.75;;;10.75;;
10275;SDS011;5183;51.190;6.820;2024-01-30T11:29:16;14.43;;;10.67;;
10275;SDS011;5183;51.190;6.820;2024-01-30T11:31:52;12.60;;;10.30;;
10275;SDS011;5183;51.190;6.820;2024-01-30T11:34:20;15.90;;;11.20;;
10275;SDS011;5183;51.190;6.820;2024-01-30T11:36:48;14.30;;;10.50;;
10275;SDS011;5183;51.190;6.820;2024-01-30T11:39:20;13.70;;;11.13;;
10275;SDS011;5183;51.190;6.820;2024-01-30T11:44:17;15.40;;;10.70;;
10275;SDS011;5183;51.190;6.820;2024-01-30T11:46:45;16.20;;;13.20;;
10275;SDS011;5183;51.190;6.820;2024-01-30T11:49:13;14.03;;;11.37;;
10275;SDS011;5183;51.190;6.820;2024-01-30T11:51:40;14.35;;;10.75;;
10275;SDS011;5183;51.190;6.820;2024-01-30T11:54:08;15.95;;;10.15;;
10275;SDS011;5183;51.190;6.820;2024-01-30T11:56:36;13.05;;;10.30;;
10275;SDS011;5183;51.190;6.820;2024-01-30T11:59:03;14.40;;;10.55;;
10275;SDS011;5183;51.190;6.820;2024-01-30T12:01:30;16.30;;;10.40;;
10275;SDS011;5183;51.190;6.820;2024-01-30T12:03:58;13.40;;;10.40;;
10275;SDS011;5183;51.190;6.820;2024-01-30T12:06:26;12.05;;;10.35;;
10275;SDS011;5183;51.190;6.820;2024-01-30T12:11:24;14.75;;;10.75;;
10275;SDS011;5183;51.190;6.820;2024-01-30T12:13:52;12.07;;;10.10;;
10275;SDS011;5183;51.190;6.820;2024-01-30T12:16:19;14.50;;;9.63;;
10275;SDS011;5183;51.190;6.820;2024-01-30T12:18:46;16.00;;;9.83;;
10275;SDS011;5183;51.190;6.820;2024-01-30T12:21:15;13.13;;;10.07;;
10275;SDS011;5183;51.190;6.820;2024-01-30T12:23:44;13.30;;;9.20;;
10275;SDS011;5183;51.190;6.820;2024-01-30T12:26:11;12.15;;;9.70;;
10275;SDS011;5183;51.190;6.820;2024-01-30T12:28:47;10.80;;;9.40;;
10275;SDS011;5183;51.190;6.820;2024-01-30T12:31:14;14.20;;;9.67;;
10275;SDS011;5183;51.190;6.820;2024-01-30T12:33:41;13.50;;;10.10;;
10275;SDS011;5183;51.190;6.820;2024-01-30T12:36:08;15.07;;;9.67;;
10275;SDS011;5183;51.190;6.820;2024-01-30T12:38:35;12.43;;;9.07;;
10275;SDS011;5183;51.190;6.820;2024-01-30T12:41:04;13.90;;;8.50;;
10275;SDS011;5183;51.190;6.820;2024-01-30T12:43:33;10.90;;;8.07;;
10275;SDS011;5183;51.190;6.820;2024-01-30T12:46:00;11.80;;;8.10;;
10275;SDS011;5183;51.190;6.820;2024-01-30T12:48:28;12.23;;;8.10;;
10275;SDS011;5183;51.190;6.820;2024-01-30T12:50:55;11.07;;;7.50;;
10275;SDS011;5183;51.190;6.820;2024-01-30T12:53:22;9.33;;;7.53;;
10275;SDS011;5183;51.190;6.820;2024-01-30T12:55:49;11.05;;;7.45;;
10275;SDS011;5183;51.190;6.820;2024-01-30T12:58:17;10.30;;;7.80;;
10275;SDS011;5183;51.190;6.820;2024-01-30T13:00:44;9.77;;;7.83;;
10275;SDS011;5183;51.190;6.820;2024-01-30T13:03:12;10.80;;;7.30;;
10275;SDS011;5183;51.190;6.820;2024-01-30T13:05:39;10.77;;;6.93;;
10275;SDS011;5183;51.190;6.820;2024-01-30T13:08:06;12.87;;;7.80;;
10275;SDS011;5183;51.190;6.820;2024-01-30T13:10:32;11.97;;;7.53;;
10275;SDS011;5183;51.190;6.820;2024-01-30T13:12:59;8.77;;;7.10;;
10275;SDS011;5183;51.190;6.820;2024-01-30T13:15:28;11.10;;;7.80;;
10275;SDS011;5183;51.190;6.820;2024-01-30T13:17:54;11.13;;;8.03;;
10275;SDS011;5183;51.190;6.820;2024-01-30T13:20:21;11.80;;;7.90;;
10275;SDS011;5183;51.190;6.820;2024-01-30T13:22:48;9.95;;;7.70;;
10275;SDS011;5183;51.190;6.820;2024-01-30T13:25:15;8.63;;;6.93;;
10275;SDS011;5183;51.190;6.820;2024-01-30T13:27:42;10.10;;;7.50;;
10275;SDS011;5183;51.190;6.820;2024-01-30T13:30:09;12.70;;;8.93;;
10275;SDS011;5183;51.190;6.820;2024-01-30T13:32:38;9.40;;;8.07;;
10275;SDS011;5183;51.190;6.820;2024-01-30T13:35:06;12.90;;;8.25;;
10275;SDS011;5183;51.190;6.820;2024-01-30T13:37:33;11.40;;;8.55;;
10275;SDS011;5183;51.190;6.820;2024-01-30T13:40:00;11.60;;;8.20;;
10275;SDS011;5183;51.190;6.820;2024-01-30T13:42:27;12.90;;;8.70;;
10275;SDS011;5183;51.190;6.820;2024-01-30T13:44:54;14.30;;;9.60;;
10275;SDS011;5183;51.190;6.820;2024-01-30T13:47:21;14.87;;;8.70;;
10275;SDS011;5183;51.190;6.820;2024-01-30T13:49:50;13.43;;;8.50;;
10275;SDS011;5183;51.190;6.820;2024-01-30T13:52:18;10.33;;;8.67;;
10275;SDS011;5183;51.190;6.820;2024-01-30T13:54:45;10.90;;;8.70;;
10275;SDS011;5183;51.190;6.820;2024-01-30T13:59:39;12.80;;;8.47;;
10275;SDS011;5183;51.190;6.820;2024-01-30T14:02:06;15.10;;;8.10;;
10275;SDS011;5183;51.190;6.820;2024-01-30T14:04:35;11.03;;;9.47;;
10275;SDS011;5183;51.190;6.820;2024-01-30T14:07:03;12.33;;;8.70;;
10275;SDS011;5183;51.190;6.820;2024-01-30T14:09:32;13.70;;;9.93;;
10275;SDS011;5183;51.190;6.820;2024-01-30T14:11:59;11.83;;;8.97;;
10275;SDS011;5183;51.190;6.820;2024-01-30T14:14:26;14.03;;;8.70;;
10275;SDS011;5183;51.190;6.820;2024-01-30T14:16:53;10.37;;;8.27;;
10275;SDS011;5183;51.190;6.820;2024-01-30T14:19:19;10.87;;;8.83;;
10275;SDS011;5183;51.190;6.820;2024-01-30T14:21:46;13.50;;;9.80;;
10275;SDS011;5183;51.190;6.820;2024-01-30T14:24:15;10.57;;;8.87;;
10275;SDS011;5183;51.190;6.820;2024-01-30T14:26:41;13.27;;;9.23;;
10275;SDS011;5183;51.190;6.820;2024-01-30T14:29:09;16.03;;;8.97;;
10275;SDS011;5183;51.190;6.820;2024-01-30T14:31:36;11.17;;;8.27;;
10275;SDS011;5183;51.190;6.820;2024-01-30T14:34:03;12.07;;;8.23;;
10275;SDS011;5183;51.190;6.820;2024-01-30T14:36:29;10.53;;;8.50;;
10275;SDS011;5183;51.190;6.820;2024-01-30T14:38:58;15.00;;;9.07;;
10275;SDS011;5183;51.190;6.820;2024-01-30T14:41:26;11.63;;;8.83;;
10275;SDS011;5183;51.190;6.820;2024-01-30T14:43:53;12.17;;;8.90;;
10275;SDS011;5183;51.190;6.820;2024-01-30T14:46:20;14.53;;;9.17;;
10275;SDS011;5183;51.190;6.820;2024-01-30T14:48:47;14.33;;;9.13;;
10275;SDS011;5183;51.190;6.820;2024-01-30T14:51:16;13.70;;;8.60;;
10275;SDS011;5183;51.190;6.820;2024-01-30T14:53:43;12.33;;;8.90;;
10275;SDS011;5183;51.190;6.820;2024-01-30T14:56:10;11.77;;;9.07;;
10275;SDS011;5183;51.190;6.820;2024-01-30T14:58:38;13.40;;;9.77;;
10275;SDS011;5183;51.190;6.820;2024-01-30T15:01:05;12.50;;;9.20;;
10275;SDS011;5183;51.190;6.820;2024-01-30T15:03:33;11.30;;;9.53;;
10275;SDS011;5183;51.190;6.820;2024-01-30T15:06:00;12.67;;;9.50;;
10275;SDS011;5183;51.190;6.820;2024-01-30T15:08:29;12.20;;;9.00;;
10275;SDS011;5183;51.190;6.820;2024-01-30T15:10:56;16.03;;;9.67;;
10275;SDS011;5183;51.190;6.820;2024-01-30T15:13:24;13.10;;;9.55;;
10275;SDS011;5183;51.190;6.820;2024-01-30T15:15:53;14.65;;;9.50;;
10275;SDS011;5183;51.190;6.820;2024-01-30T15:18:19;14.67;;;8.93;;
10275;SDS011;5183;51.190;6.820;2024-01-30T15:20:46;12.80;;;9.30;;
10275;SDS011;5183;51.190;6.820;2024-01-30T15:23:13;11.80;;;8.80;;
10275;SDS011;5183;51.190;6.820;2024-01-30T15:28:07;11.80;;;7.30;;
10275;SDS011;5183;51.190;6.820;2024-01-30T15:30:35;11.05;;;6.60;;
10275;SDS011;5183;51.190;6.820;2024-01-30T15:35:31;8.50;;;5.10;;
10275;SDS011;5183;51.190;6.820;2024-01-30T15:37:58;8.80;;;5.00;;
10275;SDS011;5183;51.190;6.820;2024-01-30T16:19:36;4.65;;;2.53;;
10275;SDS011;5183;51.190;6.820;2024-01-30T16:22:03;5.13;;;2.23;;
10275;SDS011;5183;51.190;6.820;2024-01-30T16:24:33;3.47;;;1.80;;
10275;SDS011;5183;51.190;6.820;2024-01-30T16:27:00;4.47;;;1.87;;